Lockwood, Montana
Current Conditions -  °F | °C
As of 6:53 AM on Tuesday 21 Oct 2014 (Local Time) from KBIL Reporting Station
Clear Clear  
Wind Chill: 50°   Ceiling: Unl
Heat Index: 50°   Visibility: 10mi
Dew Point: 29°   Wind: 15mph
Humidity: 44%   Direction: 230°SW
Pressure: 29.73"   Gusts: NA
Location:  45.6311°N, 108.351°W
Report Text: KBIL 211253Z 23013KT 10SM CLR 10/M02 A2973 RMK AO2 SLP047 T01001017
Loading
Personal Weather Stations






























Interactive Weather Map
Tropical Storm Tracking
New forecast layout! Learn more

10-Day Weather Forecast

Advertisements
Track Severe Weather on mobile